Temp: 13.8°C   Baro: 1017.5mb
  Wind: 6.0mph   Dir: SW (218°)
  Rain: 0.0mm (0.0mm/hr)
  Solar: 0W/m2  Hum: 86%

Historic data

Bath Spa Weather Station Historical Data
Daily Summary for December 31, 2019 Units:  English    Metric   Both
Daily Weekly Monthly Yearly Custom
  High: Low: Average:
Temperature: 48 °F 37.9 °F 43.9 °F
Dew Point: 45.1 °F 36.3 °F 41.6 °F
Humidity: 97% 84% 92%
Wind Speed: 10mph 0mph 3.4mph
Wind Gust: 17mph - -
Wind- - SE
Pressure: 30.46 in 30.40 in -
Precipitation: 0.01 in    
Historical Graphs
 
 
Tabular Data for December 31, 2019
Time Temperature Dew Point Pressure Wind Wind Speed Wind Gust Humidity Rainfall Rate (Hourly) solar
00:09 40.5 °F 38.8 °F 30.40 in Calm   2 mph 94% 0.00 in 0 W/m2
00:14 40.5 °F 38.8 °F 30.40 in NNW 0.4 mph 1 mph 94% 0.00 in 0 W/m2
00:19 40.5 °F 38.8 °F 30.40 in Calm   1 mph 94% 0.00 in 0 W/m2
00:24 40.1 °F 38.5 °F 30.41 in Calm   1 mph 94% 0.00 in 0 W/m2
00:29 39.9 °F 38.3 °F 30.40 in Calm     94% 0.00 in 0 W/m2
00:34 39.9 °F 38.3 °F 30.40 in Calm     94% 0.00 in 0 W/m2
00:39 39.8 °F 38.2 °F 30.40 in NNW 0.6 mph 2 mph 94% 0.00 in 0 W/m2
00:44 39.7 °F 38.1 °F 30.40 in NNW 0.4 mph 2 mph 94% 0.00 in 0 W/m2
00:49 39.6 °F 37.9 °F 30.40 in NNW 0.7 mph 2 mph 94% 0.00 in 0 W/m2
00:54 39.6 °F 38.3 °F 30.40 in NNW 0.5 mph 1 mph 95% 0.00 in 0 W/m2
00:59 39.4 °F 38 °F 30.40 in NNW 0.4 mph 1 mph 94.6% 0.00 in 0 W/m2
01:04 39.3 °F 37.7 °F 30.40 in Calm   1 mph 94% 0.00 in 0 W/m2
01:09 38.8 °F 37.2 °F 30.40 in NNW 0.2 mph 1 mph 94% 0.00 in 0 W/m2
01:14 38.7 °F 37 °F 30.40 in Calm   1 mph 94% 0.00 in 0 W/m2
01:19 38.7 °F 37 °F 30.40 in Calm     94% 0.00 in 0 W/m2
01:24 38.6 °F 36.9 °F 30.40 in NNW 0.4 mph 1 mph 94% 0.00 in 0 W/m2
01:29 38.3 °F 36.9 °F 30.40 in NNW 1.1 mph 2 mph 94.8% 0.00 in 0 W/m2
01:34 37.9 °F 36.3 °F 30.40 in NNW 1.2 mph 3 mph 94% 0.00 in 0 W/m2
01:39 38.1 °F 36.6 °F 30.40 in NNW 1.6 mph 3 mph 94.4% 0.00 in 0 W/m2
01:44 38.1 °F 36.9 °F 30.40 in NW 1.1 mph 3 mph 95% 0.00 in 0 W/m2
01:49 38.1 °F 36.9 °F 30.41 in NW 0.8 mph 3 mph 95% 0.00 in 0 W/m2
01:54 38.1 °F 36.9 °F 30.42 in NW 1.9 mph 4 mph 95% 0.00 in 0 W/m2
01:59 37.9 °F 36.7 °F 30.41 in WNW 0.2 mph 2 mph 95% 0.00 in 0 W/m2
02:04 37.9 °F 36.7 °F 30.42 in WNW 0.8 mph 2 mph 95% 0.00 in 0 W/m2
02:09 37.9 °F 36.7 °F 30.42 in NNW 0.9 mph 3 mph 95% 0.00 in 0 W/m2
02:14 37.9 °F 36.7 °F 30.42 in North 0.9 mph 3 mph 95% 0.00 in 0 W/m2
02:19 38 °F 36.8 °F 30.42 in NNE 1.3 mph 4 mph 95% 0.00 in 0 W/m2
02:24 38 °F 36.8 °F 30.42 in NNE 1 mph 2 mph 95% 0.00 in 0 W/m2
02:29 38 °F 36.8 °F 30.42 in NE 0.8 mph 3 mph 95% 0.00 in 0 W/m2
02:34 37.9 °F 36.7 °F 30.42 in NE 1 mph 3 mph 95% 0.00 in 0 W/m2
02:39 38.1 °F 36.9 °F 30.42 in NE 0.9 mph 3 mph 95% 0.00 in 0 W/m2
02:44 38.1 °F 36.9 °F 30.42 in NE 1.2 mph 3 mph 95% 0.00 in 0 W/m2
02:49 38.3 °F 37.1 °F 30.42 in ESE 1.6 mph 3 mph 95% 0.00 in 0 W/m2
02:54 38.7 °F 37.4 °F 30.42 in SE 2.9 mph 5 mph 95% 0.00 in 0 W/m2
02:59 38.7 °F 37.4 °F 30.42 in SE 1.3 mph 4 mph 95% 0.00 in 0 W/m2
03:04 38.6 °F 37.3 °F 30.42 in SE 1.7 mph 4 mph 95% 0.00 in 0 W/m2
03:09 38.5 °F 37.2 °F 30.42 in SE 1.6 mph 6 mph 95% 0.00 in 0 W/m2
03:14 38.5 °F 37.2 °F 30.41 in ESE 5.8 mph 9 mph 95% 0.00 in 0 W/m2
03:19 38.7 °F 37.4 °F 30.41 in ESE 3.2 mph 9 mph 95% 0.00 in 0 W/m2
03:24 38.6 °F 37.3 °F 30.42 in ESE 3.1 mph 5 mph 95% 0.00 in 0 W/m2
03:29 38.5 °F 37.2 °F 30.43 in South 1.7 mph 4 mph 95% 0.00 in 0 W/m2
03:34 38.3 °F 37 °F 30.44 in SW 1.7 mph 4 mph 95% 0.00 in 0 W/m2
03:39 38.3 °F 37 °F 30.44 in SSE 1.4 mph 3 mph 95% 0.00 in 0 W/m2
03:44 38.5 °F 37.2 °F 30.43 in SE 1.9 mph 4 mph 95% 0.00 in 0 W/m2
03:49 38.5 °F 37.2 °F 30.43 in SE 2.2 mph 4 mph 95% 0.00 in 0 W/m2
03:54 38.5 °F 37.2 °F 30.43 in SSE 1.5 mph 5 mph 95% 0.00 in 0 W/m2
03:59 38.3 °F 37 °F 30.43 in SE 1.8 mph 3 mph 95% 0.00 in 0 W/m2
04:04 38.4 °F 37.1 °F 30.43 in East 1 mph 3 mph 95% 0.00 in 0 W/m2
04:09 38.6 °F 37.3 °F 30.43 in ESE 1.1 mph 4 mph 95% 0.00 in 0 W/m2
04:14 38.7 °F 37.4 °F 30.42 in SE 1.6 mph 3 mph 95% 0.00 in 0 W/m2
04:19 38.7 °F 37.4 °F 30.43 in ESE 3.9 mph 7 mph 95.2% 0.00 in 0 W/m2
04:24 38.7 °F 37.5 °F 30.42 in ESE 2 mph 5 mph 95.5% 0.00 in 0 W/m2
04:29 38.7 °F 37.4 °F 30.42 in SE 2.4 mph 6 mph 95% 0.00 in 0 W/m2
04:34 38.7 °F 37.4 °F 30.42 in ESE 2.8 mph 7 mph 95% 0.00 in 0 W/m2
04:39 38.7 °F 37.6 °F 30.42 in SE 0.9 mph 4 mph 96% 0.00 in 0 W/m2
04:44 38.8 °F 37.8 °F 30.42 in SE 1 mph 2 mph 96% 0.00 in 0 W/m2
04:49 38.8 °F 37.8 °F 30.42 in East 1.8 mph 5 mph 96% 0.00 in 0 W/m2
04:54 39 °F 37.9 °F 30.43 in SE 2.4 mph 5 mph 96% 0.00 in 0 W/m2
04:59 39.1 °F 38 °F 30.43 in SSE 2 mph 5 mph 96% 0.00 in 0 W/m2
05:04 39.2 °F 38.1 °F 30.43 in SE 2.1 mph 4 mph 96% 0.00 in 0 W/m2
05:09 39 °F 37.9 °F 30.42 in SE 2.4 mph 4 mph 96% 0.00 in 0 W/m2
05:14 39 °F 37.9 °F 30.43 in SE 2.2 mph 4 mph 96% 0.00 in 0 W/m2
05:19 39 °F 37.9 °F 30.43 in SE 1.7 mph 4 mph 96% 0.00 in 0 W/m2
05:24 39 °F 37.9 °F 30.43 in SSE 2 mph 3 mph 96% 0.00 in 0 W/m2
05:29 39 °F 37.9 °F 30.43 in SSE 1.2 mph 4 mph 96% 0.00 in 0 W/m2
05:34 39.1 °F 38 °F 30.42 in ESE 3 mph 7 mph 96% 0.00 in 0 W/m2
05:39 39.4 °F 38.3 °F 30.42 in East 3.1 mph 7 mph 96% 0.01 in 0 W/m2
05:44 39.5 °F 38.4 °F 30.42 in SE 4.7 mph 11 mph 96% 0.01 in 0 W/m2
05:49 39.5 °F 38.3 °F 30.42 in SE 3.2 mph 9 mph 96% 0.01 in 0 W/m2
05:54 39.6 °F 38.5 °F 30.43 in SSE 2.1 mph 7 mph 96% 0.01 in 0 W/m2
05:59 39.6 °F 38.6 °F 30.44 in ESE 1.6 mph 6 mph 96% 0.01 in 0 W/m2
06:04 39.8 °F 38.7 °F 30.44 in ENE 0.5 mph 2 mph 96% 0.01 in 0 W/m2
06:09 39.9 °F 38.8 °F 30.43 in Calm   1 mph 96% 0.01 in 0 W/m2
06:14 39.7 °F 38.7 °F 30.43 in ENE 0.5 mph 1 mph 96% 0.01 in 0 W/m2
06:19 39.7 °F 38.7 °F 30.43 in SE 2.4 mph 4 mph 96% 0.01 in 0 W/m2
06:24 40 °F 38.8 °F 30.43 in SSE 3.7 mph 6 mph 96% 0.01 in 0 W/m2
06:29 40.2 °F 39.1 °F 30.43 in SE 2.8 mph 6 mph 96% 0.01 in 0 W/m2
06:34 40.3 °F 39.2 °F 30.43 in SE 2.8 mph 6 mph 96% 0.01 in 0 W/m2
06:39 40.3 °F 39.2 °F 30.43 in SE 4.6 mph 7 mph 96% 0.01 in 0 W/m2
06:44 40.3 °F 39.2 °F 30.43 in ESE 2.4 mph 7 mph 96% 0.00 in 0 W/m2
06:49 40.4 °F 39.3 °F 30.43 in SE 3.1 mph 6 mph 96% 0.00 in 0 W/m2
06:54 40.5 °F 39.4 °F 30.43 in SE 2.7 mph 5 mph 96% 0.00 in 0 W/m2
06:59 40.5 °F 39.4 °F 30.43 in East 2.4 mph 5 mph 96% 0.00 in 0 W/m2
07:04 40.7 °F 39.7 °F 30.43 in ESE 3.5 mph 6 mph 96% 0.00 in 0 W/m2
07:09 41 °F 39.9 °F 30.43 in ESE 4 mph 8 mph 96% 0.00 in 0 W/m2
07:14 41.2 °F 40.1 °F 30.42 in ESE 4.2 mph 8 mph 96% 0.00 in 0 W/m2
07:19 41.4 °F 40.3 °F 30.43 in SE 3.3 mph 8 mph 96% 0.00 in 0 W/m2
07:24 41.4 °F 40.3 °F 30.43 in ESE 2.6 mph 6 mph 96% 0.00 in 0 W/m2
07:29 41.4 °F 40.3 °F 30.43 in ESE 2.5 mph 5 mph 96% 0.00 in 0 W/m2
07:34 41.5 °F 40.4 °F 30.43 in SE 3.7 mph 6 mph 96% 0.00 in 0 W/m2
07:39 41.5 °F 40.5 °F 30.43 in SE 2.4 mph 6 mph 96% 0.00 in 0 W/m2
07:44 41.5 °F 40.5 °F 30.43 in SE 1.4 mph 5 mph 96% 0.00 in 0 W/m2
07:49 41.5 °F 40.5 °F 30.43 in SE 2.7 mph 8 mph 96% 0.00 in 0 W/m2
07:54 41.8 °F 40.7 °F 30.43 in ESE 3.6 mph 10 mph 96% 0.00 in 0 W/m2
07:59 42.1 °F 41 °F 30.43 in ESE 3.8 mph 9 mph 96% 0.00 in 0 W/m2
08:04 42.3 °F 41.2 °F 30.43 in ESE 4 mph 9 mph 96% 0.00 in 0 W/m2
08:09 42.3 °F 41.2 °F 30.43 in ESE 6.2 mph 11 mph 96% 0.00 in 0 W/m2
08:14 42.4 °F 41.4 °F 30.44 in ESE 3.7 mph 10 mph 96% 0.00 in 0 W/m2
08:19 42.6 °F 41.5 °F 30.44 in ESE 4.6 mph 11 mph 96% 0.00 in 0 W/m2
08:24 42.7 °F 41.6 °F 30.44 in ESE 5.3 mph 11 mph 96% 0.00 in 0 W/m2
08:29 43.1 °F 42 °F 30.44 in East 7.5 mph 14 mph 96% 0.00 in 0 W/m2
08:34 43.2 °F 42.1 °F 30.44 in SE 4.5 mph 13 mph 96% 0.00 in 0 W/m2
08:39 43.2 °F 42.2 °F 30.44 in East 9.3 mph 14 mph 96% 0.00 in 0 W/m2
08:44 43.3 °F 42.3 °F 30.44 in ESE 4.1 mph 14 mph 96% 0.00 in 5 W/m2
08:49 43.5 °F 42.4 °F 30.44 in ESE 4.7 mph 11 mph 96% 0.00 in 5 W/m2
08:54 43.5 °F 42.4 °F 30.45 in ESE 7.4 mph 12 mph 96% 0.00 in 5 W/m2
08:59 43.8 °F 42.9 °F 30.45 in ESE 3.9 mph 10 mph 96.4% 0.00 in 7 W/m2
09:04 43.9 °F 42.8 °F 30.45 in SE 3.5 mph 10 mph 96% 0.00 in 9 W/m2
09:09 44.3 °F 43.2 °F 30.45 in ESE 3.3 mph 9 mph 96% 0.00 in 9 W/m2
09:14 44.8 °F 43.9 °F 30.45 in SE 1.8 mph 7 mph 96.6% 0.00 in 11 W/m2
09:19 44.2 °F 43.5 °F 30.45 in ESE 3 mph 7 mph 97% 0.00 in 12 W/m2
09:24 44.2 °F 43.4 °F 30.45 in ESE 2.5 mph 8 mph 96.8% 0.00 in 16 W/m2
09:29 44.2 °F 43.3 °F 30.45 in SE 2.8 mph 7 mph 96.4% 0.00 in 18 W/m2
09:34 44.2 °F 43.3 °F 30.45 in ESE 3.2 mph 7 mph 96.2% 0.00 in 18 W/m2
09:39 44.3 °F 43.2 °F 30.45 in ESE 5.4 mph 9 mph 96% 0.00 in 21 W/m2
09:44 44.4 °F 43.3 °F 30.45 in ESE 5.6 mph 10 mph 96% 0.00 in 19 W/m2
09:49 44.4 °F 43.3 °F 30.45 in ESE 3.7 mph 9 mph 96% 0.00 in 19 W/m2
09:54 44.5 °F 43.4 °F 30.45 in ESE 3 mph 8 mph 96% 0.00 in 19 W/m2
09:59 44.6 °F 43.5 °F 30.44 in ESE 3.7 mph 9 mph 96% 0.00 in 23 W/m2
10:04 44.8 °F 43.7 °F 30.44 in East 3.6 mph 9 mph 96% 0.00 in 26 W/m2
10:09 44.8 °F 43.7 °F 30.45 in East 4.9 mph 10 mph 96% 0.00 in 33 W/m2
10:14 44.9 °F 43.8 °F 30.45 in East 2.8 mph 11 mph 96% 0.00 in 40 W/m2
10:19 45 °F 43.9 °F 30.45 in East 4.6 mph 9 mph 96% 0.00 in 42 W/m2
10:24 45 °F 43.9 °F 30.45 in ESE 3.9 mph 10 mph 96% 0.00 in 46 W/m2
10:29 45.1 °F 44.1 °F 30.46 in East 3.3 mph 8 mph 96% 0.00 in 53 W/m2
10:34 45.1 °F 44.1 °F 30.46 in East 2.4 mph 7 mph 96% 0.00 in 47 W/m2
10:39 45.2 °F 44.1 °F 30.46 in ESE 1.7 mph 3 mph 96% 0.00 in 42 W/m2
10:44 45.3 °F 44.2 °F 30.46 in ESE 2 mph 5 mph 96% 0.00 in 49 W/m2
10:49 45.4 °F 44.3 °F 30.46 in East 2.4 mph 6 mph 96% 0.00 in 56 W/m2
10:54 45.4 °F 44.3 °F 30.46 in ESE 3 mph 7 mph 96% 0.00 in 54 W/m2
10:59 45.6 °F 44.5 °F 30.46 in ESE 3.6 mph 8 mph 96% 0.00 in 37 W/m2
11:04 45.7 °F 44.6 °F 30.46 in ESE 3.4 mph 8 mph 96% 0.00 in 32 W/m2
11:08 45.7 °F 44.6 °F 30.46 in ESE 2.2 mph 5 mph 96% 0.00 in 28 W/m2
11:14 45.7 °F 44.6 °F 30.46 in ESE 3.6 mph 8 mph 96% 0.00 in 39 W/m2
11:19 45.9 °F 44.8 °F 30.45 in ESE 5.2 mph 9 mph 96% 0.00 in 33 W/m2
11:24 46 °F 45 °F 30.45 in SE 5 mph 10 mph 96% 0.00 in 32 W/m2
11:29 46 °F 45 °F 30.45 in SE 3.5 mph 10 mph 96% 0.00 in 28 W/m2
11:34 46 °F 45 °F 30.45 in SE 4.5 mph 10 mph 96% 0.00 in 32 W/m2
11:39 46.1 °F 45.1 °F 30.45 in SE 3.6 mph 9 mph 96% 0.00 in 30 W/m2
11:44 46.1 °F 45.1 °F 30.46 in ESE 6.3 mph 12 mph 96% 0.00 in 26 W/m2
11:49 46 °F 44.7 °F 30.46 in SSE 6.2 mph 12 mph 95.2% 0.00 in 32 W/m2
11:54 46 °F 44.6 °F 30.46 in SSE 5.5 mph 13 mph 95% 0.00 in 39 W/m2
11:59 46 °F 44.6 °F 30.46 in SSE 4.8 mph 13 mph 95% 0.00 in 40 W/m2
12:03 46.2 °F 44.8 °F 30.46 in SE 10 mph 17 mph 95% 0.00 in 49 W/m2
12:09 46.2 °F 44.7 °F 30.46 in SE 5.1 mph 17 mph 94.6% 0.00 in 47 W/m2
12:14 46.2 °F 44.6 °F 30.46 in SE 6.6 mph 11 mph 94% 0.00 in 40 W/m2
12:19 46.1 °F 44.5 °F 30.46 in SSE 3.7 mph 8 mph 94% 0.00 in 23 W/m2
12:24 46 °F 44.2 °F 30.46 in SSE 4.1 mph 8 mph 93.2% 0.00 in 30 W/m2
12:29 46 °F 44.1 °F 30.46 in SE 4.9 mph 11 mph 93% 0.00 in 37 W/m2
12:34 46 °F 44.1 °F 30.45 in SE 9.2 mph 16 mph 93% 0.00 in 37 W/m2
12:39 46 °F 44 °F 30.45 in ESE 7.5 mph 16 mph 92.6% 0.00 in 39 W/m2
12:44 46 °F 44 °F 30.45 in SE 4.2 mph 14 mph 92.4% 0.00 in 46 W/m2
12:49 46.1 °F 44 °F 30.45 in SE 4 mph 10 mph 92% 0.00 in 33 W/m2
12:54 46.2 °F 44.1 °F 30.45 in ESE 4.6 mph 11 mph 92% 0.00 in 46 W/m2
12:59 46.2 °F 43.9 °F 30.45 in ESE 2.9 mph 10 mph 91.4% 0.00 in 51 W/m2
13:04 46.5 °F 44.1 °F 30.44 in ESE 5.3 mph 10 mph 91.4% 0.00 in 56 W/m2
13:09 46.6 °F 44.1 °F 30.44 in ESE 6.3 mph 11 mph 91% 0.00 in 44 W/m2
13:14 46.6 °F 44.1 °F 30.44 in ESE 6.6 mph 12 mph 91% 0.00 in 39 W/m2
13:19 46.6 °F 44.1 °F 30.44 in ESE 4.5 mph 12 mph 91% 0.00 in 35 W/m2
13:24 46.6 °F 44.1 °F 30.44 in ESE 4.5 mph 10 mph 91% 0.00 in 28 W/m2
13:29 46.6 °F 43.9 °F 30.44 in ESE 5 mph 9 mph 90.2% 0.00 in 28 W/m2
13:34 46.6 °F 43.9 °F 30.44 in SE 5 mph 10 mph 90% 0.00 in 33 W/m2
13:39 46.8 °F 44.1 °F 30.44 in ESE 3.9 mph 9 mph 90% 0.00 in 33 W/m2
13:44 46.8 °F 44.1 °F 30.43 in ESE 4.7 mph 9 mph 90% 0.00 in 32 W/m2
13:49 46.8 °F 43.9 °F 30.43 in ESE 5.4 mph 10 mph 89.2% 0.00 in 32 W/m2
13:54 46.9 °F 43.9 °F 30.43 in ESE 4.3 mph 12 mph 89% 0.00 in 23 W/m2
13:59 46.9 °F 43.9 °F 30.43 in ESE 2.2 mph 8 mph 89% 0.00 in 21 W/m2
14:04 46.9 °F 43.9 °F 30.43 in East 4.2 mph 9 mph 89% 0.00 in 19 W/m2
14:09 46.9 °F 43.9 °F 30.43 in SE 3.7 mph 9 mph 89% 0.00 in 23 W/m2
14:14 46.9 °F 43.9 °F 30.43 in ESE 2.4 mph 8 mph 89% 0.00 in 26 W/m2
14:19 46.9 °F 43.9 °F 30.43 in ESE 3.6 mph 9 mph 89% 0.00 in 26 W/m2
14:24 46.9 °F 43.9 °F 30.42 in SE 4 mph 8 mph 89% 0.00 in 16 W/m2
14:29 46.9 °F 43.9 °F 30.42 in ESE 4.1 mph 9 mph 89% 0.00 in 19 W/m2
14:34 46.9 °F 43.9 °F 30.42 in ESE 5.6 mph 10 mph 89% 0.00 in 14 W/m2
14:39 47 °F 44 °F 30.43 in ESE 2.4 mph 8 mph 89% 0.00 in 18 W/m2
14:44 47.1 °F 44.1 °F 30.43 in ESE 6.8 mph 15 mph 89% 0.00 in 18 W/m2
14:49 47.1 °F 44.1 °F 30.43 in East 5.9 mph 15 mph 89% 0.00 in 18 W/m2
14:54 47.1 °F 44.1 °F 30.43 in ESE 5.4 mph 11 mph 89% 0.00 in 14 W/m2
14:58 46.9 °F 43.9 °F 30.43 in ESE 3 mph 9 mph 89% 0.00 in 14 W/m2
15:04 46.9 °F 43.9 °F 30.43 in SE 5 mph 10 mph 89% 0.00 in 14 W/m2
15:09 46.9 °F 43.9 °F 30.42 in ESE 5.3 mph 9 mph 89% 0.00 in 12 W/m2
15:14 46.9 °F 43.4 °F 30.42 in ESE 4.4 mph 9 mph 88% 0.00 in 11 W/m2
15:19 46.9 °F 43.5 °F 30.42 in East 6.4 mph 13 mph 88% 0.00 in 11 W/m2
15:24 46.9 °F 43.5 °F 30.42 in ESE 4.2 mph 9 mph 88% 0.00 in 12 W/m2
15:29 47 °F 43.6 °F 30.42 in ESE 3.7 mph 12 mph 88% 0.00 in 12 W/m2
15:34 47.1 °F 43.7 °F 30.42 in East 4.9 mph 11 mph 88% 0.00 in 11 W/m2
15:38 47.1 °F 43.7 °F 30.42 in ESE 4.5 mph 11 mph 88% 0.00 in 11 W/m2
15:44 47.1 °F 43.7 °F 30.41 in East 6.4 mph 15 mph 88% 0.00 in 7 W/m2
15:49 47.1 °F 43.7 °F 30.41 in ESE 3.6 mph 9 mph 88% 0.00 in 7 W/m2
15:54 47.1 °F 43.7 °F 30.41 in East 4.7 mph 9 mph 88% 0.00 in 5 W/m2
15:59 47.1 °F 43.7 °F 30.41 in East 4.5 mph 9 mph 88% 0.00 in 5 W/m2
16:04 47.1 °F 43.7 °F 30.41 in ESE 2.2 mph 7 mph 88% 0.00 in 0 W/m2
16:09 47.1 °F 43.7 °F 30.41 in ESE 2.6 mph 8 mph 88% 0.00 in 0 W/m2
16:14 47.1 °F 43.7 °F 30.42 in ESE 2.2 mph 5 mph 88% 0.00 in 0 W/m2
16:19 47.1 °F 43.7 °F 30.42 in SE 2.1 mph 5 mph 88% 0.00 in 0 W/m2
16:24 47.1 °F 43.7 °F 30.42 in ESE 2.4 mph 5 mph 88% 0.00 in 0 W/m2
16:29 47.1 °F 43.7 °F 30.42 in ESE 1.7 mph 7 mph 88% 0.00 in 0 W/m2
16:33 47.1 °F 44.1 °F 30.42 in ESE 2.7 mph 5 mph 89% 0.00 in 0 W/m2
16:39 47.1 °F 44.1 °F 30.42 in ESE 2.1 mph 5 mph 89% 0.00 in 0 W/m2
16:44 47.1 °F 44.1 °F 30.42 in East 1.3 mph 4 mph 89% 0.00 in 0 W/m2
16:49 47.1 °F 44.1 °F 30.42 in ENE 2.4 mph 6 mph 89% 0.00 in 0 W/m2
16:54 47.1 °F 44.1 °F 30.42 in East 1.9 mph 7 mph 89% 0.00 in 0 W/m2
16:59 47.2 °F 44.2 °F 30.42 in ENE 2.7 mph 6 mph 89% 0.00 in 0 W/m2
17:04 47.3 °F 44.2 °F 30.42 in East 4 mph 7 mph 89% 0.00 in 0 W/m2
17:09 47.3 °F 44.2 °F 30.42 in East 2.5 mph 7 mph 89% 0.00 in 0 W/m2
17:14 47.3 °F 44.2 °F 30.42 in ENE 1.7 mph 5 mph 89% 0.00 in 0 W/m2
17:19 47.4 °F 44.3 °F 30.42 in East 1.7 mph 7 mph 89% 0.00 in 0 W/m2
17:24 47.4 °F 44.3 °F 30.42 in East 2.4 mph 6 mph 89% 0.00 in 0 W/m2
17:29 47.5 °F 44.4 °F 30.42 in East 1.9 mph 7 mph 89% 0.00 in 0 W/m2
17:34 47.5 °F 44.4 °F 30.41 in ESE 4.2 mph 8 mph 89% 0.00 in 0 W/m2
17:39 47.5 °F 44.4 °F 30.41 in ESE 3.2 mph 8 mph 89% 0.00 in 0 W/m2
17:44 47.5 °F 44.4 °F 30.41 in ESE 5.3 mph 9 mph 89% 0.00 in 0 W/m2
17:49 47.5 °F 44.4 °F 30.41 in East 2.7 mph 7 mph 89% 0.00 in 0 W/m2
17:54 47.5 °F 44.1 °F 30.41 in East 4.9 mph 9 mph 88% 0.00 in 0 W/m2
17:59 47.7 °F 44.2 °F 30.41 in East 3.6 mph 9 mph 88% 0.00 in 0 W/m2
18:04 47.7 °F 44.2 °F 30.41 in East 4.1 mph 9 mph 88% 0.00 in 0 W/m2
18:09 47.7 °F 44.2 °F 30.41 in ENE 6 mph 13 mph 88% 0.00 in 0 W/m2
18:14 47.7 °F 44.2 °F 30.41 in ESE 5.5 mph 9 mph 88% 0.00 in 0 W/m2
18:18 47.7 °F 44.2 °F 30.41 in East 2.7 mph 9 mph 88% 0.00 in 0 W/m2
18:24 47.7 °F 44.2 °F 30.41 in ESE 6 mph 11 mph 88% 0.00 in 0 W/m2
18:29 47.8 °F 44.2 °F 30.42 in ESE 5.1 mph 11 mph 87.6% 0.00 in 0 W/m2
18:34 47.8 °F 44.2 °F 30.42 in ESE 3.2 mph 9 mph 87% 0.00 in 0 W/m2
18:39 47.8 °F 44.2 °F 30.42 in ESE 4.4 mph 10 mph 87% 0.00 in 0 W/m2
18:44 47.8 °F 44.2 °F 30.42 in East 5.2 mph 9 mph 87% 0.00 in 0 W/m2
18:49 47.8 °F 44.2 °F 30.42 in ESE 4.3 mph 10 mph 87% 0.00 in 0 W/m2
18:54 48 °F 44.3 °F 30.42 in ESE 5.5 mph 11 mph 86.8% 0.00 in 0 W/m2
18:59 47.9 °F 44 °F 30.41 in ESE 5.6 mph 10 mph 86.2% 0.00 in 0 W/m2
19:04 47.8 °F 44.2 °F 30.41 in ESE 4.7 mph 9 mph 87% 0.00 in 0 W/m2
19:09 47.8 °F 44.1 °F 30.41 in ESE 5.2 mph 9 mph 86.6% 0.00 in 0 W/m2
19:14 47.8 °F 44 °F 30.42 in ESE 4.9 mph 10 mph 86.2% 0.00 in 0 W/m2
19:19 47.8 °F 43.9 °F 30.41 in ESE 2.8 mph 10 mph 86% 0.00 in 0 W/m2
19:24 47.7 °F 43.8 °F 30.42 in ESE 5.2 mph 11 mph 86% 0.00 in 0 W/m2
19:29 47.7 °F 43.8 °F 30.42 in ESE 3.5 mph 11 mph 86% 0.00 in 0 W/m2
19:34 47.7 °F 43.7 °F 30.41 in East 4.4 mph 11 mph 86% 0.00 in 0 W/m2
19:39 47.6 °F 43.6 °F 30.41 in East 5.1 mph 11 mph 86% 0.00 in 0 W/m2
19:44 47.5 °F 43.5 °F 30.41 in East 3.7 mph 7 mph 86% 0.00 in 0 W/m2
19:49 47.5 °F 43.5 °F 30.41 in East 4.9 mph 12 mph 86% 0.00 in 0 W/m2
19:54 47.5 °F 43.5 °F 30.41 in East 5.8 mph 12 mph 86% 0.00 in 0 W/m2
19:59 47.3 °F 43.3 °F 30.42 in East 6.1 mph 10 mph 86% 0.00 in 0 W/m2
20:04 47.3 °F 43.3 °F 30.42 in East 4.6 mph 10 mph 86% 0.00 in 0 W/m2
20:09 47.2 °F 43.2 °F 30.42 in ESE 3.7 mph 9 mph 86% 0.00 in 0 W/m2
20:14 47.1 °F 43.2 °F 30.42 in East 4.2 mph 8 mph 86% 0.00 in 0 W/m2
20:19 47.1 °F 43.2 °F 30.42 in SE 4.8 mph 10 mph 86% 0.00 in 0 W/m2
20:24 47.1 °F 43.2 °F 30.42 in ESE 2.8 mph 10 mph 86% 0.00 in 0 W/m2
20:29 47.1 °F 43.2 °F 30.42 in SE 3.2 mph 9 mph 86% 0.00 in 0 W/m2
20:34 47.1 °F 43.2 °F 30.42 in ESE 3.2 mph 8 mph 86% 0.00 in 0 W/m2
20:39 47.1 °F 43.2 °F 30.42 in ESE 3.1 mph 7 mph 86% 0.00 in 0 W/m2
20:44 46.9 °F 43 °F 30.42 in East 3.7 mph 8 mph 86% 0.00 in 0 W/m2
20:49 46.9 °F 43 °F 30.42 in SE 2.8 mph 8 mph 86% 0.00 in 0 W/m2
20:54 46.8 °F 42.8 °F 30.42 in SE 3 mph 5 mph 86% 0.00 in 0 W/m2
20:59 46.8 °F 42.8 °F 30.42 in SE 3.6 mph 7 mph 86% 0.00 in 0 W/m2
21:04 46.6 °F 42.6 °F 30.42 in SSE 4.8 mph 10 mph 86% 0.00 in 0 W/m2
21:09 46.6 °F 42.6 °F 30.41 in SE 4 mph 7 mph 86% 0.00 in 0 W/m2
21:14 46.3 °F 42.4 °F 30.41 in SE 2.7 mph 6 mph 86% 0.00 in 0 W/m2
21:19 46.2 °F 42.3 °F 30.41 in ESE 3.7 mph 6 mph 86% 0.00 in 0 W/m2
21:24 46.2 °F 42.3 °F 30.42 in SE 2.7 mph 5 mph 86% 0.00 in 0 W/m2
21:29 46 °F 42.1 °F 30.42 in SE 2.5 mph 9 mph 86% 0.00 in 0 W/m2
21:34 45.9 °F 41.5 °F 30.42 in ESE 4.5 mph 9 mph 85% 0.00 in 0 W/m2
21:39 45.9 °F 41.5 °F 30.42 in SE 3.7 mph 10 mph 85% 0.00 in 0 W/m2
21:44 45.9 °F 41.5 °F 30.42 in ESE 3.3 mph 11 mph 85% 0.00 in 0 W/m2
21:49 46 °F 41.7 °F 30.42 in ESE 5.1 mph 9 mph 85% 0.00 in 0 W/m2
21:54 46 °F 41.6 °F 30.42 in SE 2.8 mph 8 mph 84.6% 0.00 in 0 W/m2
21:59 46 °F 41.5 °F 30.42 in East 5.4 mph 10 mph 84.2% 0.00 in 0 W/m2
22:04 46 °F 41.5 °F 30.41 in SE 4.8 mph 9 mph 84% 0.00 in 0 W/m2
22:09 46 °F 41.5 °F 30.41 in ESE 2.9 mph 5 mph 84% 0.00 in 0 W/m2
22:14 46 °F 41.5 °F 30.41 in ESE 5.1 mph 8 mph 84% 0.00 in 0 W/m2
22:19 46 °F 41.5 °F 30.41 in East 4.6 mph 9 mph 84% 0.00 in 0 W/m2
22:24 46 °F 41.7 °F 30.41 in ESE 3.2 mph 8 mph 84.8% 0.00 in 0 W/m2
22:29 46 °F 41.6 °F 30.41 in ESE 3.6 mph 9 mph 85% 0.00 in 0 W/m2
22:34 45.9 °F 41.5 °F 30.41 in East 3.1 mph 9 mph 85% 0.00 in 0 W/m2
22:39 45.9 °F 41.5 °F 30.41 in East 5.4 mph 11 mph 85% 0.00 in 0 W/m2
22:44 45.8 °F 41.4 °F 30.41 in East 5.3 mph 10 mph 85% 0.00 in 0 W/m2
22:49 45.7 °F 41.4 °F 30.41 in East 3.8 mph 8 mph 85% 0.00 in 0 W/m2
22:54 45.7 °F 41.4 °F 30.41 in East 5 mph 10 mph 85% 0.00 in 0 W/m2
22:59 45.7 °F 41.4 °F 30.40 in East 2.9 mph 9 mph 85% 0.00 in 0 W/m2
23:04 45.7 °F 41.4 °F 30.41 in East 5.8 mph 10 mph 85% 0.00 in 0 W/m2
23:09 45.6 °F 41.3 °F 30.41 in SE 3.5 mph 10 mph 85% 0.00 in 0 W/m2
23:14 45.5 °F 41.2 °F 30.40 in ESE 3.7 mph 8 mph 85% 0.00 in 0 W/m2
23:19 45.5 °F 41.2 °F 30.40 in ESE 4 mph 8 mph 85% 0.00 in 0 W/m2
23:24 45.5 °F 41.2 °F 30.40 in ESE 3.6 mph 8 mph 85% 0.00 in 0 W/m2
23:29 45.4 °F 41.2 °F 30.40 in East 5.3 mph 10 mph 85.4% 0.00 in 0 W/m2
23:34 45.3 °F 41.4 °F 30.40 in ESE 3.9 mph 10 mph 86% 0.00 in 0 W/m2
23:39 45.3 °F 41.4 °F 30.40 in East 6.1 mph 10 mph 86% 0.00 in 0 W/m2
23:44 45.3 °F 41.4 °F 30.40 in ESE 4.4 mph 10 mph 86% 0.00 in 0 W/m2
23:49 45.3 °F 41.3 °F 30.40 in ESE 4.4 mph 10 mph 85.8% 0.00 in 0 W/m2
23:54 45.2 °F 41 °F 30.40 in ESE 2.5 mph 7 mph 85.4% 0.00 in 0 W/m2
23:59 45.1 °F 41 °F 30.40 in ESE 5.2 mph 10 mph 85.6% 0.00 in 0 W/m2
Bath Spa Weather
Compliments of Weather Underground - 2 mb